Terminal Aerodrome Forecast
Issued by NWS

Home | Current Version | Previous Version | Text Only | Print | Product List | Glossary On
Versions: 1 2 3 4 5 6 7 8 9 10 11 12 13 14 15 16 17 18 19 20 21 22 23 24 25 26 27 28
000
FTUS43 KDTX 211100 CCA
TAFPTK
TAF COR
KPTK 211144Z 2112/2212 28012KT P6SM BKN015 BKN100
     FM211400 32012KT P6SM BKN025
      TEMPO 2114/2118 5SM -SHRA BR BKN020
     FM211800 34014KT 5SM -SHRA BKN015
     FM212200 34014G22KT P6SM BKN020
     FM220000 33011KT P6SM BKN025=

USA.gov is the U.S. government's official web portal to all federal, state and local government web resources and services.